createdAt,value
2022-11-28T00:00:22.154Z,17.90
2022-11-28T00:01:22.326Z,15.00
2022-11-28T00:02:22.716Z,16.70
2022-11-28T00:03:22.770Z,16.00
2022-11-28T00:04:22.834Z,15.80
2022-11-28T00:05:23.000Z,18.50
2022-11-28T00:06:23.204Z,16.10
2022-11-28T00:07:23.397Z,16.10
2022-11-28T00:08:23.530Z,16.50
2022-11-28T00:09:23.710Z,17.30
2022-11-28T00:10:23.873Z,17.70
2022-11-28T00:11:24.055Z,16.10
2022-11-28T00:12:24.230Z,15.50
2022-11-28T00:13:24.398Z,16.90
2022-11-28T00:14:24.568Z,16.20
2022-11-28T00:15:24.756Z,16.50
2022-11-28T00:16:25.003Z,16.70
2022-11-28T00:17:25.116Z,17.70
2022-11-28T00:18:25.306Z,16.10
2022-11-28T00:19:25.475Z,17.00
2022-11-28T00:20:25.630Z,16.70
2022-11-28T00:21:25.808Z,18.10
2022-11-28T00:22:25.967Z,16.50
2022-11-28T00:23:26.149Z,16.40
2022-11-28T00:24:26.323Z,16.30
2022-11-28T00:25:26.504Z,17.70
2022-11-28T00:26:26.913Z,16.70
2022-11-28T00:27:26.867Z,15.60
2022-11-28T00:28:27.027Z,17.20
2022-11-28T00:29:27.199Z,16.40
2022-11-28T00:30:27.373Z,15.40
2022-11-28T00:31:27.595Z,16.30
2022-11-28T00:32:27.724Z,17.10
2022-11-28T00:33:27.891Z,16.50
2022-11-28T00:34:28.071Z,15.50
2022-11-28T00:35:28.253Z,16.00
2022-11-28T00:36:28.423Z,15.20
2022-11-28T00:37:28.637Z,16.80
2022-11-28T00:38:28.781Z,14.80
2022-11-28T00:39:28.956Z,15.70
2022-11-28T00:40:29.132Z,16.70
2022-11-28T00:41:29.293Z,16.20
2022-11-28T00:42:29.480Z,15.90
2022-11-28T00:43:29.649Z,16.30
2022-11-28T00:44:29.819Z,14.80
2022-11-28T00:45:30.060Z,15.50
2022-11-28T00:46:30.161Z,17.00
2022-11-28T00:47:30.353Z,17.80
2022-11-28T00:48:30.514Z,16.30
2022-11-28T00:49:30.692Z,17.30
2022-11-28T00:50:30.855Z,15.30
2022-11-28T00:51:31.058Z,16.90
2022-11-28T00:52:31.245Z,15.80
2022-11-28T00:53:31.426Z,15.80
2022-11-28T00:54:31.596Z,17.90
2022-11-28T00:55:31.768Z,17.20
2022-11-28T00:56:31.953Z,17.60
2022-11-28T00:57:32.115Z,15.70
2022-11-28T00:58:32.286Z,15.60
2022-11-28T00:59:32.474Z,15.60
2022-11-28T01:00:32.627Z,15.30
2022-11-28T01:01:32.830Z,16.70
2022-11-28T01:02:33.028Z,16.30
2022-11-28T01:03:33.130Z,17.50
2022-11-28T01:04:33.296Z,15.70
2022-11-28T01:05:33.494Z,15.90
2022-11-28T01:06:33.671Z,15.60
2022-11-28T01:07:33.900Z,15.90
2022-11-28T01:08:34.017Z,15.80
2022-11-28T01:09:34.181Z,17.10
2022-11-28T01:10:34.380Z,16.40
2022-11-28T01:11:34.584Z,17.70
2022-11-28T01:12:34.742Z,15.30
2022-11-28T01:13:34.918Z,16.50
2022-11-28T01:14:35.044Z,17.50
2022-11-28T01:15:35.219Z,16.10
2022-11-28T01:16:35.562Z,16.10
2022-11-28T01:17:35.589Z,15.10
2022-11-28T01:18:35.769Z,16.70
2022-11-28T01:19:35.928Z,15.60
2022-11-28T01:20:36.112Z,14.90
2022-11-28T01:21:36.263Z,16.00
2022-11-28T01:22:36.501Z,16.10
2022-11-28T01:23:36.605Z,15.40
2022-11-28T01:24:36.790Z,16.00
2022-11-28T01:25:36.954Z,16.70
2022-11-28T01:26:37.128Z,17.50
2022-11-28T01:27:37.343Z,16.10
2022-11-28T01:28:37.475Z,16.50
2022-11-28T01:29:37.641Z,17.10
2022-11-28T01:30:37.818Z,16.20
2022-11-28T01:31:38.053Z,18.30
2022-11-28T01:32:38.198Z,14.30
2022-11-28T01:33:38.322Z,14.00
2022-11-28T01:34:38.497Z,14.80
2022-11-28T01:35:38.662Z,16.50
2022-11-28T01:36:38.844Z,17.10
2022-11-28T01:37:39.063Z,17.00
2022-11-28T01:38:39.197Z,15.60
2022-11-28T01:39:39.360Z,15.80
2022-11-28T01:40:39.533Z,15.40
2022-11-28T01:41:39.701Z,15.90
2022-11-28T01:42:39.896Z,14.70
2022-11-28T01:43:40.067Z,16.40
2022-11-28T01:44:40.472Z,17.00
2022-11-28T01:45:40.384Z,17.00
2022-11-28T01:46:40.596Z,14.60
2022-11-28T01:47:40.761Z,16.90
2022-11-28T01:48:40.939Z,16.00
2022-11-28T01:49:41.065Z,15.30
2022-11-28T01:50:41.245Z,16.00
2022-11-28T01:51:41.392Z,16.60
2022-11-28T01:52:41.586Z,16.20
2022-11-28T01:53:41.758Z,17.30
2022-11-28T01:54:42.005Z,14.70
2022-11-28T01:55:42.107Z,15.40
2022-11-28T01:56:42.248Z,17.20
2022-11-28T01:57:42.427Z,16.80
2022-11-28T01:58:42.609Z,16.10
2022-11-28T01:59:42.786Z,15.90
2022-11-28T02:00:42.981Z,17.40
2022-11-28T02:01:43.197Z,15.70
2022-11-28T02:02:43.308Z,16.60
2022-11-28T02:03:43.488Z,16.30
2022-11-28T02:04:43.924Z,14.90
2022-11-28T02:05:43.812Z,15.80
2022-11-28T02:06:43.998Z,14.60
2022-11-28T02:07:44.346Z,15.20
2022-11-28T02:08:44.329Z,15.80
2022-11-28T02:09:44.519Z,14.80
2022-11-28T02:10:44.710Z,15.00
2022-11-28T02:11:44.882Z,16.50
2022-11-28T02:12:45.052Z,15.10
2022-11-28T02:13:45.199Z,16.10
2022-11-28T02:14:45.390Z,15.70
2022-11-28T02:15:45.561Z,15.40
2022-11-28T02:16:45.830Z,16.60
2022-11-28T02:17:45.903Z,16.30
2022-11-28T02:18:50.453Z,15.60
2022-11-28T02:19:46.512Z,15.00
2022-11-28T02:20:46.439Z,16.10
2022-11-28T02:21:46.604Z,15.30
2022-11-28T02:22:46.766Z,16.80
2022-11-28T02:23:46.954Z,15.10
2022-11-28T02:24:47.148Z,17.80
2022-11-28T02:25:47.291Z,16.00
2022-11-28T02:26:47.493Z,16.90
2022-11-28T02:27:47.613Z,15.60
2022-11-28T02:28:47.797Z,16.40
2022-11-28T02:29:48.001Z,16.00
2022-11-28T02:30:48.138Z,15.70
2022-11-28T02:31:48.383Z,15.90
2022-11-28T02:32:48.462Z,16.10
2022-11-28T02:33:48.650Z,15.50
2022-11-28T02:34:49.086Z,16.20
2022-11-28T02:35:48.973Z,15.80
2022-11-28T02:36:49.396Z,15.10
2022-11-28T02:37:49.335Z,13.90
2022-11-28T02:38:49.519Z,15.60
2022-11-28T02:39:49.690Z,15.60
2022-11-28T02:40:49.869Z,15.20
2022-11-28T02:41:50.037Z,14.40
2022-11-28T02:42:50.215Z,16.30
2022-11-28T02:43:50.341Z,16.30
2022-11-28T02:44:50.545Z,16.90
2022-11-28T02:45:50.691Z,15.70
2022-11-28T02:46:50.921Z,15.80
2022-11-28T02:47:51.029Z,18.10
2022-11-28T02:48:51.211Z,16.30
2022-11-28T02:49:51.370Z,15.80
2022-11-28T02:50:51.559Z,14.10
2022-11-28T02:51:51.708Z,16.50
2022-11-28T02:52:51.908Z,14.80
2022-11-28T02:53:52.037Z,17.40
2022-11-28T02:54:52.229Z,15.00
2022-11-28T02:55:52.408Z,15.30
2022-11-28T02:56:52.579Z,15.90
2022-11-28T02:57:52.768Z,17.10
2022-11-28T02:58:52.940Z,15.50
2022-11-28T02:59:53.109Z,16.00
2022-11-28T03:00:53.314Z,14.30
2022-11-28T03:01:53.488Z,17.40
2022-11-28T03:02:53.669Z,15.70
2022-11-28T03:03:53.789Z,16.00
2022-11-28T03:04:53.969Z,16.20
2022-11-28T03:05:54.124Z,18.00
2022-11-28T03:06:54.288Z,15.30
2022-11-28T03:07:54.564Z,16.00
2022-11-28T03:08:54.626Z,16.60
2022-11-28T03:09:54.793Z,17.50
2022-11-28T03:10:54.964Z,16.80
2022-11-28T03:11:55.131Z,15.30
2022-11-28T03:12:55.320Z,16.30
2022-11-28T03:13:55.486Z,15.40
2022-11-28T03:14:55.672Z,15.80
2022-11-28T03:15:55.880Z,15.60
2022-11-28T03:16:56.010Z,15.70
2022-11-28T03:17:56.224Z,16.70
2022-11-28T03:18:56.375Z,15.30
2022-11-28T03:20:03.536Z,16.20
2022-11-28T03:20:56.716Z,18.60
2022-11-28T03:21:56.876Z,17.10
2022-11-28T03:22:57.058Z,15.80
2022-11-28T03:23:57.227Z,17.10
2022-11-28T03:24:57.419Z,17.80
2022-11-28T03:25:57.573Z,16.50
2022-11-28T03:26:57.747Z,17.80
2022-11-28T03:27:57.918Z,16.60
2022-11-28T03:28:58.103Z,15.00
2022-11-28T03:29:58.269Z,16.70
2022-11-28T03:30:58.440Z,17.40
2022-11-28T03:31:58.665Z,16.00
2022-11-28T03:32:58.771Z,16.80
2022-11-28T03:33:58.957Z,16.80
2022-11-28T03:34:59.126Z,16.20
2022-11-28T03:35:59.284Z,16.90
2022-11-28T03:36:59.456Z,17.40
2022-11-28T03:37:59.628Z,16.70
2022-11-28T03:38:59.811Z,18.00
2022-11-28T03:39:59.987Z,16.20
2022-11-28T03:41:00.170Z,16.90
2022-11-28T03:42:00.312Z,16.10
2022-11-28T03:43:00.487Z,17.60
2022-11-28T03:44:00.660Z,18.00
2022-11-28T03:45:00.872Z,16.90
2022-11-28T03:46:01.014Z,15.90
2022-11-28T03:47:01.198Z,16.50
2022-11-28T03:48:01.341Z,16.60
2022-11-28T03:49:01.524Z,17.40
2022-11-28T03:50:01.709Z,17.50
2022-11-28T03:51:01.863Z,17.70
2022-11-28T03:52:02.038Z,15.90
2022-11-28T03:53:02.256Z,16.90
2022-11-28T03:54:02.383Z,16.50
2022-11-28T03:55:02.556Z,16.80
2022-11-28T03:56:02.769Z,17.20
2022-11-28T03:57:02.947Z,16.80
2022-11-28T03:58:03.077Z,18.20
2022-11-28T03:59:03.244Z,16.70
2022-11-28T04:00:03.414Z,16.40
2022-11-28T04:01:03.653Z,15.90
2022-11-28T04:02:03.771Z,16.00
2022-11-28T04:03:04.028Z,17.20
2022-11-28T04:04:04.126Z,16.60
2022-11-28T04:05:04.302Z,16.60
2022-11-28T04:06:04.477Z,16.10
2022-11-28T04:07:04.646Z,16.00
2022-11-28T04:08:04.862Z,16.40
2022-11-28T04:09:04.994Z,15.20
2022-11-28T04:10:05.151Z,15.10
2022-11-28T04:11:05.340Z,16.50
2022-11-28T04:12:05.496Z,15.90
2022-11-28T04:13:05.667Z,15.80
2022-11-28T04:14:05.841Z,16.60
2022-11-28T04:15:06.007Z,16.80
2022-11-28T04:16:06.244Z,16.30
2022-11-28T04:17:06.360Z,15.90
2022-11-28T04:18:06.532Z,17.20
2022-11-28T04:19:06.700Z,15.90
2022-11-28T04:20:06.869Z,18.00
2022-11-28T04:21:07.077Z,15.20
2022-11-28T04:22:07.232Z,15.60
2022-11-28T04:23:07.413Z,15.70
2022-11-28T04:24:07.572Z,16.50
2022-11-28T04:25:07.744Z,16.20
2022-11-28T04:26:07.920Z,17.00
2022-11-28T04:27:08.080Z,17.50
2022-11-28T04:28:08.250Z,15.10
2022-11-28T04:29:08.439Z,16.10
2022-11-28T04:30:08.591Z,16.90
2022-11-28T04:31:08.881Z,16.00
2022-11-28T04:32:08.931Z,16.20
2022-11-28T04:33:09.102Z,15.40
2022-11-28T04:34:09.263Z,16.90
2022-11-28T04:35:09.442Z,15.40
2022-11-28T04:36:09.633Z,16.10
2022-11-28T04:37:10.114Z,16.40
2022-11-28T04:38:09.973Z,16.70
2022-11-28T04:39:10.150Z,16.10
2022-11-28T04:40:10.320Z,15.60
2022-11-28T04:41:10.512Z,16.40
2022-11-28T04:42:10.688Z,15.70
2022-11-28T04:43:10.853Z,16.60
2022-11-28T04:44:11.025Z,15.70
2022-11-28T04:45:11.196Z,16.00
2022-11-28T04:46:11.488Z,16.40
2022-11-28T04:47:11.548Z,17.20
2022-11-28T04:48:11.717Z,16.40
2022-11-28T04:49:11.905Z,16.90
2022-11-28T04:50:12.070Z,15.80
2022-11-28T04:51:12.244Z,15.30
2022-11-28T04:52:12.445Z,15.60
2022-11-28T04:53:12.576Z,16.10
2022-11-28T04:54:12.746Z,16.00
2022-11-28T04:55:12.914Z,15.50
2022-11-28T04:56:13.080Z,16.10
2022-11-28T04:57:13.274Z,17.00
2022-11-28T04:58:13.435Z,15.00
2022-11-28T04:59:13.609Z,15.20
2022-11-28T05:00:13.778Z,16.30
2022-11-28T05:01:14.052Z,15.50
2022-11-28T05:02:14.234Z,15.10
2022-11-28T05:03:14.278Z,15.40
2022-11-28T05:04:14.447Z,16.30
2022-11-28T05:05:14.624Z,16.80
2022-11-28T05:06:14.782Z,14.90
2022-11-28T05:07:15.025Z,16.10
2022-11-28T05:08:15.107Z,16.50
2022-11-28T05:09:15.281Z,16.90
2022-11-28T05:10:15.450Z,16.20
2022-11-28T05:11:15.645Z,15.80
2022-11-28T05:12:15.820Z,15.40
2022-11-28T05:13:15.987Z,15.50
2022-11-28T05:14:16.139Z,16.50
2022-11-28T05:15:16.331Z,16.10
2022-11-28T05:16:16.578Z,15.00
2022-11-28T05:17:16.651Z,15.40
2022-11-28T05:18:16.818Z,15.10
2022-11-28T05:19:17.358Z,16.70
2022-11-28T05:20:17.181Z,15.10
2022-11-28T05:21:17.335Z,16.00
2022-11-28T05:22:17.497Z,17.10
2022-11-28T05:23:17.673Z,15.50
2022-11-28T05:24:17.853Z,15.60
2022-11-28T05:25:18.062Z,15.90
2022-11-28T05:26:18.222Z,16.10
2022-11-28T05:27:18.391Z,17.20
2022-11-28T05:28:18.565Z,16.10
2022-11-28T05:29:18.724Z,16.50
2022-11-28T05:30:18.918Z,15.50
2022-11-28T05:31:19.143Z,16.20
2022-11-28T05:32:19.253Z,16.20
2022-11-28T05:33:19.434Z,15.50
2022-11-28T05:34:19.618Z,17.00
2022-11-28T05:35:19.780Z,17.70
2022-11-28T05:36:19.963Z,16.10
2022-11-28T05:37:20.104Z,17.60
2022-11-28T05:38:20.329Z,16.70
2022-11-28T05:39:20.457Z,16.20
2022-11-28T05:40:20.629Z,16.10
2022-11-28T05:41:20.800Z,17.10
2022-11-28T05:42:20.976Z,16.40
2022-11-28T05:43:21.174Z,16.00
2022-11-28T05:44:25.525Z,16.30
2022-11-28T05:45:22.560Z,16.10
2022-11-28T05:46:21.676Z,16.30
2022-11-28T05:47:21.837Z,14.60
2022-11-28T05:48:22.038Z,16.30
2022-11-28T05:49:22.190Z,15.50
2022-11-28T05:50:22.377Z,16.00
2022-11-28T05:51:22.545Z,15.90
2022-11-28T05:52:22.712Z,16.90
2022-11-28T05:53:22.899Z,15.60
2022-11-28T05:54:23.061Z,16.90
2022-11-28T05:55:23.218Z,15.90
2022-11-28T05:56:23.408Z,16.80
2022-11-28T05:57:23.564Z,15.80
2022-11-28T05:58:23.749Z,15.70
2022-11-28T05:59:23.912Z,15.80
2022-11-28T06:00:24.088Z,15.80
2022-11-28T06:01:24.270Z,16.90
2022-11-28T06:02:24.508Z,17.40
2022-11-28T06:03:24.626Z,17.20
2022-11-28T06:04:24.818Z,16.90
2022-11-28T06:05:41.719Z,16.50
2022-11-28T06:06:26.140Z,15.30
2022-11-28T06:07:25.351Z,16.10
2022-11-28T06:08:25.440Z,17.10
2022-11-28T06:09:26.199Z,15.80
2022-11-28T06:10:25.812Z,14.90
2022-11-28T06:11:25.968Z,18.70
2022-11-28T06:12:26.169Z,17.60
2022-11-28T06:13:26.331Z,17.60
2022-11-28T06:14:26.493Z,16.90
2022-11-28T06:15:26.670Z,15.80
2022-11-28T06:16:26.873Z,16.20
2022-11-28T06:17:27.001Z,18.10
2022-11-28T06:18:27.193Z,18.20
2022-11-28T06:19:27.361Z,17.00
2022-11-28T06:20:27.552Z,17.40
2022-11-28T06:21:27.708Z,15.00
2022-11-28T06:22:27.871Z,15.80
2022-11-28T06:23:28.082Z,17.30
2022-11-28T06:24:28.213Z,16.40
2022-11-28T06:25:28.382Z,16.50
2022-11-28T06:26:28.564Z,17.80
2022-11-28T06:27:28.734Z,18.10
2022-11-28T06:28:28.924Z,16.60
2022-11-28T06:29:29.083Z,18.80
2022-11-28T06:30:29.265Z,17.20
2022-11-28T06:31:29.470Z,16.30
2022-11-28T06:32:29.592Z,16.80
2022-11-28T06:33:29.776Z,16.60
2022-11-28T06:34:29.935Z,16.90
2022-11-28T06:35:30.105Z,15.70
2022-11-28T06:36:30.275Z,17.00
2022-11-28T06:37:30.449Z,18.30
2022-11-28T06:38:30.616Z,16.30
2022-11-28T06:39:30.796Z,16.60
2022-11-28T06:40:30.961Z,17.30
2022-11-28T06:41:31.117Z,17.70
2022-11-28T06:42:31.355Z,16.70
2022-11-28T06:43:31.467Z,18.20
2022-11-28T06:44:31.648Z,17.90
2022-11-28T06:45:31.856Z,17.40
2022-11-28T06:46:32.030Z,16.30
2022-11-28T06:47:32.188Z,17.50
2022-11-28T06:48:32.363Z,16.90
2022-11-28T06:49:32.537Z,17.00
2022-11-28T06:50:32.710Z,17.50
2022-11-28T06:51:32.905Z,17.10
2022-11-28T06:52:33.034Z,16.30
2022-11-28T06:53:33.209Z,17.00
2022-11-28T06:54:33.384Z,16.10
2022-11-28T06:55:33.546Z,16.70
2022-11-28T06:56:33.734Z,17.60
2022-11-28T06:57:33.891Z,16.40
2022-11-28T06:58:34.079Z,17.80
2022-11-28T06:59:34.240Z,17.40
2022-11-28T07:00:34.426Z,16.50
2022-11-28T07:01:34.690Z,17.50
2022-11-28T07:02:34.813Z,18.70
2022-11-28T07:03:34.930Z,18.30
2022-11-28T07:04:35.108Z,16.10
2022-11-28T07:05:35.282Z,17.30
2022-11-28T07:06:35.481Z,18.00
2022-11-28T07:07:45.782Z,18.80
2022-11-28T07:08:36.838Z,17.00
2022-11-28T07:09:35.994Z,17.90
2022-11-28T07:10:36.176Z,17.70
2022-11-28T07:11:36.381Z,17.50
2022-11-28T07:12:36.565Z,17.60
2022-11-28T07:13:36.730Z,18.40
2022-11-28T07:14:36.893Z,18.50
2022-11-28T07:15:37.094Z,18.30
2022-11-28T07:16:37.333Z,16.40
2022-11-28T07:17:37.484Z,19.30
2022-11-28T07:18:37.605Z,17.50
2022-11-28T07:19:37.786Z,17.60
2022-11-28T07:20:37.974Z,17.60
2022-11-28T07:21:38.136Z,18.40
2022-11-28T07:22:38.363Z,18.10
2022-11-28T07:23:38.528Z,17.30
2022-11-28T07:24:38.734Z,18.80
2022-11-28T07:25:38.874Z,18.10
2022-11-28T07:26:39.085Z,19.70
2022-11-28T07:27:39.236Z,17.70
2022-11-28T07:28:39.426Z,17.20
2022-11-28T07:29:39.717Z,16.80
2022-11-28T07:30:39.796Z,17.10
2022-11-28T07:31:39.979Z,17.20
2022-11-28T07:32:40.116Z,17.50
2022-11-28T07:33:40.304Z,17.10
2022-11-28T07:34:40.497Z,17.40
2022-11-28T07:35:40.684Z,17.30
2022-11-28T07:36:40.891Z,17.10
2022-11-28T07:37:41.058Z,18.80
2022-11-28T07:38:41.223Z,18.00
2022-11-28T07:39:41.714Z,18.90
2022-11-28T07:40:41.565Z,18.60
2022-11-28T07:41:41.708Z,17.50
2022-11-28T07:42:41.890Z,17.50
2022-11-28T07:43:42.069Z,17.60
2022-11-28T07:44:42.262Z,16.70
2022-11-28T07:45:59.993Z,20.00
2022-11-28T07:46:43.664Z,17.90
2022-11-28T07:47:42.781Z,17.80
2022-11-28T07:48:42.977Z,19.30
2022-11-28T07:49:43.408Z,18.00
2022-11-28T07:50:43.304Z,21.30
2022-11-28T07:51:43.455Z,17.40
2022-11-28T07:52:43.642Z,18.30
2022-11-28T07:53:43.802Z,18.10
2022-11-28T07:54:43.974Z,17.80
2022-11-28T07:55:44.141Z,17.10
2022-11-28T07:57:11.941Z,17.20
2022-11-28T07:57:45.456Z,18.30
2022-11-28T07:58:44.671Z,18.30
2022-11-28T07:59:45.123Z,18.70
2022-11-28T08:00:44.973Z,17.40
2022-11-28T08:01:45.232Z,18.30
2022-11-28T08:02:45.332Z,18.60
2022-11-28T08:03:45.498Z,17.30
2022-11-28T08:04:49.553Z,18.00
2022-11-28T08:05:46.846Z,19.30
2022-11-28T08:06:46.025Z,17.30
2022-11-28T08:07:46.286Z,18.20
2022-11-28T08:08:46.404Z,18.00
2022-11-28T08:09:46.604Z,19.30
2022-11-28T08:10:46.763Z,18.80
2022-11-28T08:11:46.958Z,18.20
2022-11-28T08:12:47.164Z,17.40
2022-11-28T08:13:47.311Z,19.40
2022-11-28T08:14:47.524Z,19.30
2022-11-28T08:15:47.676Z,18.80
2022-11-28T08:16:47.883Z,18.70
2022-11-28T08:17:48.025Z,18.30
2022-11-28T08:18:48.224Z,19.70
2022-11-28T08:19:48.398Z,19.20
2022-11-28T08:20:48.538Z,18.30
2022-11-28T08:21:48.695Z,18.80
2022-11-28T08:22:48.851Z,19.20
2022-11-28T08:23:49.034Z,18.80
2022-11-28T08:24:49.199Z,18.00
2022-11-28T08:25:49.347Z,19.40
2022-11-28T08:26:49.642Z,18.70
2022-11-28T08:27:49.725Z,18.50
2022-11-28T08:28:49.893Z,18.50
2022-11-28T08:29:53.335Z,20.10
2022-11-28T08:30:50.276Z,20.20
2022-11-28T08:31:50.416Z,18.30
2022-11-28T08:32:50.598Z,19.00
2022-11-28T08:33:50.752Z,18.80
2022-11-28T08:34:50.951Z,19.00
2022-11-28T08:35:51.102Z,19.10
2022-11-28T08:36:51.279Z,19.10
2022-11-28T08:37:51.440Z,18.80
2022-11-28T08:39:09.502Z,17.20
2022-11-28T08:39:52.804Z,17.70
2022-11-28T08:40:51.966Z,20.10
2022-11-28T08:41:52.144Z,18.00
2022-11-28T08:42:52.297Z,18.30
2022-11-28T08:43:52.492Z,19.20
2022-11-28T08:44:52.639Z,19.00
2022-11-28T08:45:52.870Z,18.20
2022-11-28T08:46:52.989Z,19.20
2022-11-28T08:47:53.124Z,18.50
2022-11-28T08:48:53.302Z,19.30
2022-11-28T08:49:53.464Z,18.00
2022-11-28T08:50:53.640Z,19.30
2022-11-28T08:51:53.818Z,19.80
2022-11-28T08:52:53.987Z,18.90
2022-11-28T08:53:59.194Z,18.20
2022-11-28T08:54:55.335Z,19.50
2022-11-28T08:55:54.518Z,19.50
2022-11-28T08:56:54.725Z,17.90
2022-11-28T08:57:54.923Z,18.40
2022-11-28T08:58:55.058Z,17.80
2022-11-28T08:59:55.197Z,18.10
2022-11-28T09:00:55.460Z,19.00
2022-11-28T09:01:55.794Z,18.60
2022-11-28T09:02:55.723Z,18.90
2022-11-28T09:03:56.071Z,18.70
2022-11-28T09:04:56.075Z,17.40
2022-11-28T09:05:56.235Z,19.10
2022-11-28T09:06:56.408Z,17.30
2022-11-28T09:07:56.644Z,18.70
2022-11-28T09:08:56.716Z,20.20
2022-11-28T09:09:56.931Z,18.60
2022-11-28T09:10:57.083Z,19.40
2022-11-28T09:11:57.244Z,19.10
2022-11-28T09:12:57.444Z,19.60
2022-11-28T09:13:57.576Z,19.90
2022-11-28T09:14:57.750Z,18.70
2022-11-28T09:15:57.908Z,19.70
2022-11-28T09:16:58.140Z,21.40
2022-11-28T09:17:58.251Z,19.80
2022-11-28T09:18:58.419Z,19.50
2022-11-28T09:20:56.857Z,17.90
2022-11-28T09:21:58.085Z,17.80
2022-11-28T09:22:57.196Z,19.60
2022-11-28T09:23:57.381Z,18.70
2022-11-28T09:24:57.545Z,20.60
2022-11-28T09:25:57.716Z,20.60
2022-11-28T09:26:57.889Z,19.40
2022-11-28T09:27:58.047Z,20.40
2022-11-28T09:28:58.228Z,21.00
2022-11-28T09:29:58.400Z,20.00
2022-11-28T09:30:58.617Z,19.10
2022-11-28T09:31:58.789Z,19.70
2022-11-28T09:32:58.921Z,19.70
2022-11-28T09:33:59.105Z,20.30
2022-11-28T09:34:59.263Z,18.10
2022-11-28T09:35:59.440Z,19.70
2022-11-28T09:37:04.683Z,19.20
2022-11-28T09:38:00.834Z,20.10
2022-11-28T09:38:59.940Z,19.00
2022-11-28T09:40:14.073Z,18.40
2022-11-28T09:41:01.272Z,19.00
2022-11-28T09:42:00.460Z,18.30
2022-11-28T09:43:00.624Z,19.60
2022-11-28T09:44:00.794Z,18.20
2022-11-28T09:45:00.962Z,19.40
2022-11-28T09:46:01.309Z,19.20
2022-11-28T09:47:01.435Z,18.90
2022-11-28T09:48:01.551Z,19.10
2022-11-28T09:49:01.671Z,18.20
2022-11-28T09:50:01.814Z,20.00
2022-11-28T09:51:01.982Z,19.30
2022-11-28T09:52:02.256Z,18.40
2022-11-28T09:53:02.361Z,19.20
2022-11-28T09:54:02.475Z,19.20
2022-11-28T09:55:02.635Z,17.30
2022-11-28T09:56:02.855Z,18.40
2022-11-28T09:57:03.502Z,18.20
2022-11-28T09:58:03.188Z,20.50
2022-11-28T09:59:03.321Z,18.20
2022-11-28T10:00:03.486Z,19.30
2022-11-28T10:01:03.685Z,19.30
2022-11-28T10:02:03.825Z,19.20
2022-11-28T10:03:03.986Z,18.60
2022-11-28T10:04:04.282Z,21.10
2022-11-28T10:05:04.388Z,19.00
2022-11-28T10:06:04.523Z,18.30
2022-11-28T10:07:04.686Z,20.10
2022-11-28T10:08:04.911Z,19.20
2022-11-28T10:09:05.024Z,19.90
2022-11-28T10:10:05.187Z,20.30
2022-11-28T10:11:05.342Z,18.90
2022-11-28T10:12:05.567Z,19.90
2022-11-28T10:13:05.667Z,18.00
2022-11-28T10:14:08.433Z,19.10
2022-11-28T10:15:06.001Z,21.00
2022-11-28T10:16:06.164Z,19.20
2022-11-28T10:17:06.403Z,19.40
2022-11-28T10:18:06.494Z,20.90
2022-11-28T10:19:09.906Z,19.20
2022-11-28T10:20:07.822Z,20.20
2022-11-28T10:21:06.974Z,21.30
2022-11-28T10:22:07.209Z,19.70
2022-11-28T10:23:07.322Z,17.80
2022-11-28T10:24:07.504Z,20.10
2022-11-28T10:25:07.641Z,20.30
2022-11-28T10:26:07.820Z,19.70
2022-11-28T10:27:08.003Z,18.60
2022-11-28T10:28:08.153Z,19.00
2022-11-28T10:29:08.312Z,19.90
2022-11-28T10:30:08.461Z,19.10
2022-11-28T10:31:08.683Z,19.20
2022-11-28T10:32:08.821Z,20.00
2022-11-28T10:33:08.983Z,18.80
2022-11-28T10:34:09.139Z,19.90
2022-11-28T10:35:09.327Z,19.90
2022-11-28T10:36:09.483Z,19.30
2022-11-28T10:37:09.666Z,19.30
2022-11-28T10:38:09.823Z,19.70
2022-11-28T10:39:11.317Z,18.90
2022-11-28T10:40:10.148Z,19.50
2022-11-28T10:41:10.316Z,18.70
2022-11-28T10:42:10.501Z,20.50
2022-11-28T10:43:10.650Z,19.40
2022-11-28T10:44:10.813Z,19.60
2022-11-28T10:45:11.006Z,19.50
2022-11-28T10:46:11.206Z,19.70
2022-11-28T10:47:11.345Z,19.10
2022-11-28T10:48:38.068Z,20.10
2022-11-28T10:49:12.662Z,18.80
2022-11-28T10:50:11.827Z,19.40
2022-11-28T10:51:11.986Z,20.00
2022-11-28T10:52:12.175Z,21.10
2022-11-28T10:53:12.318Z,19.80
2022-11-28T10:54:12.474Z,18.60
2022-11-28T10:55:12.667Z,19.80
2022-11-28T10:56:12.819Z,19.40
2022-11-28T10:57:13.016Z,21.40
2022-11-28T10:58:13.157Z,20.20
2022-11-28T10:59:13.339Z,18.20
2022-11-28T11:00:13.554Z,19.80
2022-11-28T11:01:13.687Z,19.30
2022-11-28T11:02:13.874Z,19.60
2022-11-28T11:03:14.034Z,18.90
2022-11-28T11:04:14.229Z,20.30
2022-11-28T11:05:14.358Z,19.90
2022-11-28T11:06:14.519Z,18.20
2022-11-28T11:07:19.522Z,19.60
2022-11-28T11:08:15.903Z,21.30
2022-11-28T11:09:15.000Z,19.70
2022-11-28T11:10:15.182Z,19.60
2022-11-28T11:11:15.361Z,20.10
2022-11-28T11:12:15.555Z,20.00
2022-11-28T11:13:15.713Z,18.60
2022-11-28T11:14:15.869Z,19.70
2022-11-28T11:15:16.051Z,20.30
2022-11-28T11:16:16.324Z,20.00
2022-11-28T11:17:16.409Z,19.60
2022-11-28T11:18:16.562Z,19.00
2022-11-28T11:19:16.740Z,20.80
2022-11-28T11:20:16.916Z,19.90
2022-11-28T11:21:17.141Z,20.50
2022-11-28T11:22:17.253Z,18.90
2022-11-28T11:23:17.443Z,19.90
2022-11-28T11:24:17.612Z,21.20
2022-11-28T11:25:17.794Z,19.70
2022-11-28T11:26:17.955Z,20.40
2022-11-28T11:27:18.113Z,18.60
2022-11-28T11:28:18.264Z,19.60
2022-11-28T11:29:18.458Z,21.60
2022-11-28T11:30:18.631Z,20.50
2022-11-28T11:31:18.830Z,19.70
2022-11-28T11:32:18.976Z,21.00
2022-11-28T11:33:19.134Z,20.70
2022-11-28T11:34:19.295Z,19.30
2022-11-28T11:35:19.483Z,19.50
2022-11-28T11:36:19.645Z,20.30
2022-11-28T11:37:19.820Z,20.70
2022-11-28T11:38:19.986Z,19.30
2022-11-28T11:39:20.157Z,19.00
2022-11-28T11:40:20.340Z,19.10
2022-11-28T11:41:20.488Z,20.90
2022-11-28T11:42:20.650Z,18.50
2022-11-28T11:43:20.818Z,19.90
2022-11-28T11:44:20.983Z,18.10
2022-11-28T11:45:21.167Z,18.80
2022-11-28T11:46:21.402Z,19.10
2022-11-28T11:47:21.479Z,19.10
2022-11-28T11:48:21.648Z,18.00
2022-11-28T11:49:21.814Z,20.80
2022-11-28T11:50:21.988Z,19.00
2022-11-28T11:51:22.159Z,18.60
2022-11-28T11:52:22.329Z,18.20
2022-11-28T11:53:22.503Z,17.60
2022-11-28T11:54:22.668Z,18.30
2022-11-28T11:55:22.867Z,18.80
2022-11-28T11:56:23.009Z,19.60
2022-11-28T11:57:33.265Z,19.90
2022-11-28T11:58:24.361Z,19.00
2022-11-28T11:59:23.548Z,19.80
2022-11-28T12:00:23.756Z,19.20
2022-11-28T12:01:23.898Z,18.70
2022-11-28T12:02:24.143Z,22.10
2022-11-28T12:03:24.339Z,19.30
2022-11-28T12:04:44.323Z,19.00
2022-11-28T12:05:25.582Z,18.00
2022-11-28T12:06:24.728Z,19.80
2022-11-28T12:07:24.957Z,18.90
2022-11-28T12:08:25.057Z,18.80
2022-11-28T12:09:25.231Z,19.20
2022-11-28T12:10:25.387Z,19.10
2022-11-28T12:11:25.572Z,19.00
2022-11-28T12:12:25.712Z,19.90
2022-11-28T12:13:25.892Z,18.80
2022-11-28T12:14:26.046Z,18.00
2022-11-28T12:15:26.239Z,19.50
2022-11-28T12:16:26.521Z,16.90
2022-11-28T12:18:27.749Z,18.00
2022-11-28T12:19:26.932Z,18.00
2022-11-28T12:20:27.105Z,19.10
2022-11-28T12:21:27.290Z,17.70
2022-11-28T12:22:27.449Z,18.10
2022-11-28T12:23:27.618Z,17.00
2022-11-28T12:24:27.770Z,18.00
2022-11-28T12:25:27.983Z,19.00
2022-11-28T12:26:28.137Z,19.60
2022-11-28T12:27:28.309Z,16.90
2022-11-28T12:28:28.473Z,17.30
2022-11-28T12:29:28.620Z,17.90
2022-11-28T12:30:28.791Z,18.10
2022-11-28T12:31:29.044Z,17.70
2022-11-28T12:32:29.138Z,16.50
2022-11-28T12:33:29.318Z,17.60
2022-11-28T12:34:29.477Z,16.70
2022-11-28T12:35:29.659Z,17.50
2022-11-28T12:36:29.807Z,17.40
2022-11-28T12:37:48.311Z,16.80
2022-11-28T12:38:31.128Z,19.40
2022-11-28T12:39:30.314Z,16.50
2022-11-28T12:40:30.480Z,18.80
2022-11-28T12:41:32.709Z,18.30
2022-11-28T12:42:30.820Z,17.10
2022-11-28T12:43:30.970Z,19.60
2022-11-28T12:44:31.158Z,16.70
2022-11-28T12:45:31.380Z,17.90
2022-11-28T12:46:31.554Z,17.20
2022-11-28T12:47:31.727Z,19.00
2022-11-28T12:48:31.882Z,18.50
2022-11-28T12:49:32.060Z,19.30
2022-11-28T12:50:32.204Z,17.00
2022-11-28T12:51:32.400Z,18.00
2022-11-28T12:52:32.596Z,18.10
2022-11-28T12:53:32.779Z,17.80
2022-11-28T12:54:32.965Z,17.30
2022-11-28T12:55:33.124Z,17.90
2022-11-28T12:56:33.278Z,19.10